Time;durP1;ratioP1;P1;durP2;ratioP2;P2;SDS_P1;SDS_P2;PMS_P1;PMS_P2;Temp;Humidity;BMP_temperature;BMP_pressure;BME280_temperature;BME280_humidity;BME280_pressure;Samples;Min_cycle;Max_cycle;Signal;HPM_P1;HPM_P2
2021/08/30 00:02:48;;;;;;;3.72;1.60;;;16.20;99.90;;;;;;10359953;28;20488;-61
2021/08/30 00:07:50;;;;;;;3.63;1.95;;;16.20;99.90;;;;;;10358895;28;20057;-62
2021/08/30 00:12:52;;;;;;;2.00;1.70;;;16.30;99.90;;;;;;10364465;28;20045;-61
2021/08/30 00:17:54;;;;;;;3.10;1.80;;;16.30;99.90;;;;;;10361089;28;20049;-60
2021/08/30 00:22:56;;;;;;;3.67;1.83;;;16.20;99.90;;;;;;10363920;28;20077;-61
2021/08/30 00:27:58;;;;;;;3.65;1.88;;;16.20;99.90;;;;;;10360074;28;20611;-61
2021/08/30 00:33:00;;;;;;;3.03;1.95;;;16.20;99.90;;;;;;10359916;28;20430;-61
2021/08/30 00:38:01;;;;;;;4.07;1.65;;;16.20;99.90;;;;;;10361618;28;20069;-61
2021/08/30 00:43:04;;;;;;;5.70;1.92;;;16.20;99.90;;;;;;10365265;28;20041;-60
2021/08/30 00:48:06;;;;;;;4.60;2.03;;;16.10;99.90;;;;;;10357601;28;20096;-60
2021/08/30 00:53:07;;;;;;;3.08;1.80;;;16.10;99.90;;;;;;10363790;28;20080;-60
2021/08/30 00:58:09;;;;;;;4.53;1.85;;;16.10;99.90;;;;;;10359821;28;20115;-60
2021/08/30 01:03:11;;;;;;;4.97;2.53;;;16.20;99.90;;;;;;10356235;28;20132;-60
2021/08/30 01:08:26;;;;;;;3.92;2.63;;;16.20;99.90;;;;;;10364028;28;20053;-60
2021/08/30 01:13:33;;;;;;;3.60;2.38;;;16.30;99.90;;;;;;10359592;28;20116;-60
2021/08/30 01:18:35;;;;;;;3.50;2.35;;;16.30;99.90;;;;;;10361193;28;20055;-60
2021/08/30 01:23:39;;;;;;;5.03;2.10;;;16.40;99.90;;;;;;10366905;28;20118;-60
2021/08/30 01:28:53;;;;;;;3.00;2.22;;;16.40;99.90;;;;;;10367513;28;20115;-60
2021/08/30 01:33:54;;;;;;;2.97;1.92;;;16.40;99.90;;;;;;10367094;28;20054;-60
2021/08/30 01:38:59;;;;;;;5.72;2.58;;;16.40;99.90;;;;;;10368385;28;20053;-60
2021/08/30 01:44:01;;;;;;;3.33;1.70;;;16.40;99.90;;;;;;10362683;28;20096;-60
2021/08/30 01:49:05;;;;;;;5.43;3.08;;;16.40;99.90;;;;;;10364070;28;20057;-61
2021/08/30 01:54:07;;;;;;;3.92;2.80;;;16.40;99.90;;;;;;10371222;28;20062;-61
2021/08/30 02:04:29;;;;;;;6.70;3.80;;;16.40;99.90;;;;;;10360746;28;20046;-60
2021/08/30 02:09:31;;;;;;;5.05;2.47;;;16.40;99.90;;;;;;10368993;28;20111;-60
2021/08/30 02:14:32;;;;;;;6.03;3.97;;;16.40;99.90;;;;;;10367785;28;20053;-61
2021/08/30 02:19:59;;;;;;;6.88;3.90;;;16.40;99.90;;;;;;10367392;28;20111;-62
2021/08/30 02:25:06;;;;;;;6.03;3.50;;;16.40;99.90;;;;;;10365181;28;20041;-58
2021/08/30 02:30:14;;;;;;;;;;;16.50;99.90;;;;;;10367278;28;20065;-59
2021/08/30 02:35:20;;;;;;;4.85;3.45;;;16.50;99.90;;;;;;10367379;28;19925;-60
2021/08/30 02:40:24;;;;;;;8.50;3.42;;;16.50;99.90;;;;;;10364386;28;20042;-61
2021/08/30 02:45:28;;;;;;;5.40;3.40;;;16.50;99.90;;;;;;10363493;28;20103;-60
2021/08/30 02:50:31;;;;;;;4.70;2.95;;;16.50;99.90;;;;;;10366005;28;20120;-59
2021/08/30 02:55:33;;;;;;;4.30;3.30;;;16.50;99.90;;;;;;10368073;28;20049;-61
2021/08/30 03:00:35;;;;;;;5.85;3.30;;;16.50;99.90;;;;;;10366365;28;20053;-61
2021/08/30 03:05:40;;;;;;;6.28;3.70;;;16.60;99.90;;;;;;10367756;28;20077;-61
2021/08/30 03:10:44;;;;;;;11.40;3.72;;;16.50;99.90;;;;;;10361182;28;20132;-60
2021/08/30 03:15:49;;;;;;;7.60;3.33;;;16.50;99.90;;;;;;10368315;28;20513;-60
2021/08/30 03:20:53;;;;;;;6.50;3.10;;;16.50;99.90;;;;;;10360249;28;20168;-59
2021/08/30 03:25:55;;;;;;;5.47;3.03;;;16.40;99.90;;;;;;10365058;28;20077;-60
2021/08/30 03:30:57;;;;;;;7.28;3.45;;;16.40;99.90;;;;;;10361665;28;20424;-60
2021/08/30 03:36:00;;;;;;;6.10;3.80;;;16.50;99.90;;;;;;10365233;28;20056;-59
2021/08/30 03:41:02;;;;;;;5.53;3.13;;;16.40;99.90;;;;;;10363269;28;20163;-60
2021/08/30 03:46:05;;;;;;;5.75;3.10;;;16.40;99.90;;;;;;10363222;28;20073;-60
2021/08/30 03:51:09;;;;;;;6.38;3.40;;;16.50;99.90;;;;;;10363270;28;20152;-60
2021/08/30 03:56:12;;;;;;;6.35;4.35;;;16.50;99.90;;;;;;10357669;28;20702;-61
2021/08/30 04:01:16;;;;;;;6.53;4.22;;;16.30;99.90;;;;;;10366436;28;20103;-60
2021/08/30 04:06:18;;;;;;;5.93;3.60;;;16.10;99.90;;;;;;10360067;28;21688;-61
2021/08/30 04:11:20;;;;;;;5.97;3.65;;;15.90;99.90;;;;;;10359513;28;20073;-60
2021/08/30 04:16:22;;;;;;;6.03;4.05;;;15.90;99.90;;;;;;10361919;28;20052;-61
2021/08/30 04:21:24;;;;;;;6.78;3.75;;;15.90;99.90;;;;;;10358141;28;20053;-60
2021/08/30 04:26:25;;;;;;;5.22;3.50;;;15.90;99.90;;;;;;10359246;28;20062;-61
2021/08/30 04:31:27;;;;;;;7.82;4.25;;;15.90;99.90;;;;;;10363505;28;20054;-61
2021/08/30 04:36:29;;;;;;;5.88;3.63;;;15.90;99.90;;;;;;10360026;28;20385;-65
2021/08/30 04:41:31;;;;;;;6.38;3.75;;;16.00;99.90;;;;;;10362036;28;20138;-65
2021/08/30 04:46:33;;;;;;;5.65;3.25;;;16.10;99.90;;;;;;10360727;28;20585;-65
2021/08/30 04:51:35;;;;;;;4.38;3.30;;;16.20;99.90;;;;;;10359674;28;20073;-66
2021/08/30 04:56:36;;;;;;;5.70;3.00;;;16.20;99.90;;;;;;10360373;28;20111;-65
2021/08/30 05:01:38;;;;;;;6.50;4.00;;;16.20;99.90;;;;;;10370697;28;20107;-65
2021/08/30 05:06:40;;;;;;;7.53;3.75;;;16.30;99.90;;;;;;10367508;28;20057;-65
2021/08/30 05:11:42;;;;;;;7.15;3.88;;;16.30;99.90;;;;;;10372111;28;20500;-65
2021/08/30 05:16:43;;;;;;;5.80;3.70;;;16.30;99.90;;;;;;10366736;28;20085;-65
2021/08/30 05:21:45;;;;;;;5.82;3.45;;;16.40;99.90;;;;;;10365827;28;20476;-65
2021/08/30 05:26:49;;;;;;;5.25;3.35;;;16.40;99.90;;;;;;10367481;28;20526;-67
2021/08/30 05:31:54;;;;;;;6.45;3.88;;;16.40;99.90;;;;;;10364279;28;20432;-64
2021/08/30 05:36:55;;;;;;;6.43;3.88;;;16.40;99.90;;;;;;10366508;28;20099;-65
2021/08/30 05:41:57;;;;;;;5.32;3.88;;;16.50;99.90;;;;;;10364853;28;20408;-65
2021/08/30 05:46:59;;;;;;;6.18;3.85;;;16.50;99.90;;;;;;10367658;28;20074;-65
2021/08/30 05:52:01;;;;;;;10.43;4.50;;;16.50;99.90;;;;;;10363659;28;20133;-65
2021/08/30 05:57:06;;;;;;;6.75;4.00;;;16.60;99.90;;;;;;10369016;28;20129;-64
2021/08/30 06:02:07;;;;;;;7.65;4.35;;;16.70;99.90;;;;;;10377929;28;20120;-64
2021/08/30 06:07:09;;;;;;;4.88;3.38;;;16.70;99.90;;;;;;10364952;28;20522;-65
2021/08/30 06:12:11;;;;;;;6.53;3.85;;;16.60;99.90;;;;;;10363789;28;20049;-66
2021/08/30 06:17:13;;;;;;;6.10;3.72;;;16.60;99.90;;;;;;10368386;28;20046;-66
2021/08/30 06:22:14;;;;;;;6.95;4.32;;;16.70;99.90;;;;;;10367475;28;20050;-66
2021/08/30 06:27:17;;;;;;;7.10;3.92;;;16.70;99.90;;;;;;10366570;28;21024;-66
2021/08/30 06:32:19;;;;;;;7.10;4.30;;;16.80;99.90;;;;;;10368436;28;20081;-65
2021/08/30 06:37:21;;;;;;;7.85;4.47;;;16.90;99.90;;;;;;10370078;28;20045;-65
2021/08/30 06:42:23;;;;;;;8.07;4.95;;;16.90;99.90;;;;;;10357301;28;20045;-66
2021/08/30 06:47:25;;;;;;;7.05;4.43;;;17.00;99.90;;;;;;10368657;28;20132;-66
2021/08/30 06:52:26;;;;;;;11.57;4.97;;;17.00;99.90;;;;;;10361123;28;20053;-65
2021/08/30 06:57:32;;;;;;;9.25;4.53;;;17.00;99.90;;;;;;10362978;28;20057;-65
2021/08/30 07:02:34;;;;;;;6.40;3.70;;;16.90;99.90;;;;;;10369686;28;20057;-66
2021/08/30 07:07:36;;;;;;;6.28;4.22;;;16.90;99.90;;;;;;10363369;28;20053;-66
2021/08/30 07:12:38;;;;;;;5.47;3.60;;;16.90;99.90;;;;;;10366606;28;20111;-65
2021/08/30 07:17:39;;;;;;;7.38;3.85;;;16.80;99.90;;;;;;10358910;28;20450;-66
2021/08/30 07:22:41;;;;;;;9.27;3.55;;;16.90;99.90;;;;;;10364332;28;20065;-66
2021/08/30 07:27:43;;;;;;;9.23;4.50;;;17.00;99.90;;;;;;10365185;28;20394;-66
2021/08/30 07:32:45;;;;;;;7.75;4.25;;;17.10;99.90;;;;;;10362325;28;20109;-66
2021/08/30 07:37:46;;;;;;;7.38;4.43;;;17.10;99.90;;;;;;10365285;28;20054;-65
2021/08/30 07:42:48;;;;;;;7.97;3.90;;;17.20;99.90;;;;;;10365803;28;20123;-66
2021/08/30 07:47:50;;;;;;;7.22;4.35;;;17.30;99.90;;;;;;10360681;28;20052;-66
2021/08/30 07:52:52;;;;;;;8.82;5.07;;;17.40;99.90;;;;;;10364189;28;20053;-65
2021/08/30 07:57:54;;;;;;;6.97;4.60;;;17.40;99.90;;;;;;10363702;28;20473;-65
2021/08/30 08:02:56;;;;;;;7.45;4.05;;;17.40;99.90;;;;;;10362906;28;20107;-66
2021/08/30 08:07:58;;;;;;;12.32;5.15;;;17.50;99.90;;;;;;10359948;28;20274;-65
2021/08/30 08:12:59;;;;;;;8.48;4.10;;;17.50;99.90;;;;;;10362846;28;20085;-66
2021/08/30 08:18:02;;;;;;;7.65;4.18;;;17.60;99.90;;;;;;10364839;28;20045;-65
2021/08/30 08:23:04;;;;;;;7.25;4.78;;;17.50;99.90;;;;;;10364785;28;20488;-66
2021/08/30 08:28:06;;;;;;;8.88;4.75;;;17.70;99.90;;;;;;10365430;28;20108;-65
2021/08/30 08:33:08;;;;;;;8.95;4.15;;;17.70;99.90;;;;;;10371516;28;20066;-65
2021/08/30 08:38:11;;;;;;;8.57;4.43;;;17.90;99.90;;;;;;10368327;28;20042;-68
2021/08/30 08:43:14;;;;;;;6.95;4.28;;;18.00;99.90;;;;;;10375283;28;20065;-68
2021/08/30 08:48:17;;;;;;;5.93;3.75;;;18.10;99.90;;;;;;10367566;28;20053;-68
2021/08/30 08:53:19;;;;;;;6.07;3.90;;;18.20;99.90;;;;;;10366415;28;20112;-68
2021/08/30 08:58:21;;;;;;;6.35;4.00;;;18.40;99.90;;;;;;10370751;28;20123;-67
2021/08/30 09:03:22;;;;;;;8.30;4.38;;;18.70;99.90;;;;;;10370359;28;20042;-67
2021/08/30 09:08:41;;;;;;;7.75;4.50;;;18.80;99.90;;;;;;10368917;28;20053;-67
2021/08/30 09:13:52;;;;;;;6.75;4.05;;;19.00;99.90;;;;;;10370715;28;20566;-67
2021/08/30 09:19:07;;;;;;;5.38;4.18;;;19.10;99.90;;;;;;10371890;28;20054;-67
2021/08/30 09:24:14;;;;;;;8.93;4.75;;;19.30;99.90;;;;;;10354918;28;20468;-67
2021/08/30 09:29:18;;;;;;;7.82;3.78;;;19.10;99.90;;;;;;10367661;28;20088;-67
2021/08/30 09:34:20;;;;;;;7.60;4.15;;;19.00;99.90;;;;;;10365501;28;20119;-67
2021/08/30 09:39:22;;;;;;;8.05;4.72;;;19.10;99.90;;;;;;10369960;28;20547;-66
2021/08/30 09:44:26;;;;;;;9.07;3.88;;;19.10;99.90;;;;;;10370187;28;20041;-66
2021/08/30 09:49:30;;;;;;;7.15;3.85;;;19.00;99.90;;;;;;10366029;28;20045;-67
2021/08/30 09:54:32;;;;;;;6.82;3.80;;;19.30;99.90;;;;;;10371473;28;20119;-67
2021/08/30 09:59:37;;;;;;;7.03;3.55;;;19.20;99.90;;;;;;10366803;28;20111;-66
2021/08/30 10:04:40;;;;;;;6.47;3.80;;;19.20;99.90;;;;;;10364766;28;20204;-67
2021/08/30 10:09:43;;;;;;;6.03;4.22;;;19.10;99.90;;;;;;10367595;28;20096;-66
2021/08/30 10:14:45;;;;;;;6.40;3.90;;;19.00;99.90;;;;;;10367330;28;20045;-66
2021/08/30 10:19:56;;;;;;;5.40;3.67;;;19.10;99.90;;;;;;10368920;28;20050;-67
2021/08/30 10:24:59;;;;;;;5.28;3.75;;;19.00;99.90;;;;;;10368356;28;20042;-67
2021/08/30 10:30:10;;;;;;;6.78;4.00;;;19.00;99.90;;;;;;10365466;28;20654;-68
2021/08/30 10:35:18;;;;;;;6.82;4.25;;;19.10;99.90;;;;;;10361975;28;20111;-68
2021/08/30 10:40:21;;;;;;;5.15;3.65;;;19.50;99.90;;;;;;10369906;28;20393;-69
2021/08/30 10:45:30;;;;;;;6.05;3.65;;;19.60;99.90;;;;;;10367030;28;20477;-68
2021/08/30 10:50:42;;;;;;;8.30;3.55;;;19.90;99.90;;;;;;10368190;28;20057;-68
2021/08/30 10:55:47;;;;;;;4.75;3.67;;;19.90;99.90;;;;;;10365967;28;20477;-69
2021/08/30 11:00:50;;;;;;;5.22;3.45;;;19.80;99.90;;;;;;10366550;28;20056;-68
2021/08/30 11:06:14;;;;;;;5.10;3.35;;;20.20;99.90;;;;;;10364095;28;20099;-68
2021/08/30 11:11:24;;;;;;;4.00;2.42;;;20.10;99.90;;;;;;10366607;28;20131;-68
2021/08/30 11:16:26;;;;;;;4.85;2.97;;;19.70;99.90;;;;;;10360380;28;20131;-68
2021/08/30 11:21:47;;;;;;;4.38;3.33;;;19.60;99.90;;;;;;10368981;28;20484;-68
2021/08/30 11:26:49;;;;;;;6.20;3.60;;;19.70;99.90;;;;;;10368525;28;20556;-69
2021/08/30 11:31:52;;;;;;;3.70;2.58;;;19.50;99.90;;;;;;10365965;28;20049;-69
2021/08/30 11:36:56;;;;;;;6.85;3.00;;;19.50;99.90;;;;;;10369155;28;20052;-70
2021/08/30 11:42:06;;;;;;;7.28;3.33;;;19.30;99.90;;;;;;10365027;28;20111;-69
2021/08/30 11:47:14;;;;;;;3.47;2.65;;;19.40;99.90;;;;;;10366165;28;20615;-67
2021/08/30 11:52:18;;;;;;;5.05;3.30;;;19.20;99.90;;;;;;10349738;28;20454;-69
2021/08/30 11:57:20;;;;;;;5.43;3.83;;;19.10;99.90;;;;;;10360856;28;20053;-68
2021/08/30 12:02:22;;;;;;;5.47;3.15;;;18.90;99.90;;;;;;10359292;28;20057;-69
2021/08/30 12:07:24;;;;;;;3.88;3.25;;;18.70;99.90;;;;;;10360864;28;20054;-69
2021/08/30 12:12:30;;;;;;;6.50;4.07;;;18.30;99.90;;;;;;10359743;28;20115;-68
2021/08/30 12:17:41;;;;;;;6.78;4.32;;;18.00;99.90;;;;;;10360505;28;20424;-68
2021/08/30 12:22:59;;;;;;;8.32;4.75;;;17.80;99.90;;;;;;10361689;28;20045;-68
2021/08/30 12:28:01;;;;;;;7.50;4.65;;;17.80;99.90;;;;;;10360490;28;20053;-68
2021/08/30 12:33:06;;;;;;;8.40;4.05;;;17.90;99.90;;;;;;10366402;28;20527;-68
2021/08/30 12:38:13;;;;;;;14.32;4.13;;;17.90;99.90;;;;;;10369152;28;20115;-69
2021/08/30 12:43:16;;;;;;;9.40;3.75;;;18.10;99.90;;;;;;10361044;28;20077;-68
2021/08/30 12:48:20;;;;;;;6.22;3.50;;;18.30;99.90;;;;;;10361241;28;20049;-68
2021/08/30 12:53:22;;;;;;;8.85;3.50;;;18.40;99.90;;;;;;10360346;28;20046;-68
2021/08/30 12:58:24;;;;;;;5.82;3.03;;;18.70;99.90;;;;;;10360808;28;20432;-68
2021/08/30 13:03:26;;;;;;;5.47;3.03;;;18.90;99.90;;;;;;10359706;28;20063;-68
2021/08/30 13:08:28;;;;;;;4.13;2.53;;;19.00;99.90;;;;;;10359324;28;20045;-70
2021/08/30 13:13:30;;;;;;;3.78;3.10;;;19.00;99.90;;;;;;10359946;28;20054;-68
2021/08/30 13:18:31;;;;;;;4.35;3.20;;;19.00;99.90;;;;;;10368668;28;20045;-68
2021/08/30 13:23:33;;;;;;;8.68;3.35;;;19.00;99.90;;;;;;10359201;28;20099;-69
2021/08/30 13:28:49;;;;;;;3.93;2.60;;;18.90;99.90;;;;;;10365547;28;20053;-70
2021/08/30 13:33:51;;;;;;;3.80;2.75;;;18.70;99.90;;;;;;10371042;28;20288;-70
2021/08/30 13:38:53;;;;;;;3.30;3.00;;;18.90;99.90;;;;;;10369132;28;20538;-69
2021/08/30 13:43:58;;;;;;;4.40;2.70;;;19.00;99.90;;;;;;10358793;28;20150;-68
2021/08/30 13:48:59;;;;;;;6.53;2.00;;;19.10;99.90;;;;;;10364662;28;20484;-69
2021/08/30 13:54:02;;;;;;;3.00;1.98;;;19.20;99.90;;;;;;10353609;28;20040;-69
2021/08/30 13:59:04;;;;;;;4.03;2.17;;;19.10;99.90;;;;;;10358712;28;20107;-69
2021/08/30 14:04:06;;;;;;;2.42;2.05;;;19.40;99.90;;;;;;10372513;28;20061;-68
2021/08/30 14:09:07;;;;;;;3.97;2.28;;;19.60;99.90;;;;;;10363144;28;20053;-70
2021/08/30 14:14:10;;;;;;;6.40;2.50;;;19.60;99.90;;;;;;10364009;28;20114;-68
2021/08/30 14:19:31;;;;;;;3.70;2.65;;;19.70;99.90;;;;;;10369562;28;20053;-68
2021/08/30 14:24:33;;;;;;;6.97;3.35;;;20.10;99.90;;;;;;10368665;28;20041;-68
2021/08/30 14:29:35;;;;;;;5.43;2.75;;;20.20;99.90;;;;;;10368856;28;20037;-68
2021/08/30 14:34:37;;;;;;;5.07;2.90;;;20.20;99.90;;;;;;10367064;28;20084;-67
2021/08/30 14:39:39;;;;;;;7.07;2.85;;;20.20;99.90;;;;;;10367151;28;20427;-69
2021/08/30 14:44:41;;;;;;;6.63;2.55;;;20.10;99.90;;;;;;10369247;28;20050;-69
2021/08/30 14:49:43;;;;;;;4.55;2.83;;;20.10;99.90;;;;;;10365353;28;20741;-67
2021/08/30 14:54:45;;;;;;;4.65;2.72;;;20.10;99.90;;;;;;10367964;28;20120;-69
2021/08/30 14:59:46;;;;;;;4.68;3.28;;;20.20;99.90;;;;;;10363885;28;20052;-69
2021/08/30 15:04:48;;;;;;;3.83;2.65;;;20.10;99.90;;;;;;10363765;28;20073;-68
2021/08/30 15:09:50;;;;;;;3.22;2.70;;;19.80;99.90;;;;;;10364164;28;20110;-69
2021/08/30 15:14:52;;;;;;;4.78;3.35;;;19.70;99.90;;;;;;10371255;28;20061;-68
2021/08/30 15:19:54;;;;;;;6.05;2.90;;;19.70;99.90;;;;;;10364532;28;20096;-68
2021/08/30 15:24:56;;;;;;;5.88;3.40;;;19.70;99.90;;;;;;10369377;28;20791;-68
2021/08/30 15:29:57;;;;;;;8.68;4.25;;;19.70;99.90;;;;;;10365399;28;20049;-68
2021/08/30 15:35:00;;;;;;;3.97;2.80;;;19.60;99.90;;;;;;10361394;28;20054;-68
2021/08/30 15:40:03;;;;;;;4.30;3.10;;;19.90;99.90;;;;;;10372684;28;20131;-68
2021/08/30 15:45:07;;;;;;;7.03;4.00;;;20.10;99.90;;;;;;10366184;28;20465;-68
2021/08/30 15:50:09;;;;;;;5.65;3.72;;;20.10;99.90;;;;;;10370154;28;20350;-65
2021/08/30 15:55:11;;;;;;;10.63;4.15;;;20.10;99.90;;;;;;10358221;28;20123;-68
2021/08/30 16:00:13;;;;;;;4.28;2.97;;;19.90;99.90;;;;;;10363162;28;20480;-68
2021/08/30 16:05:18;;;;;;;5.82;3.45;;;19.70;99.90;;;;;;10365540;28;20046;-68
2021/08/30 16:10:20;;;;;;;6.18;3.50;;;19.70;99.90;;;;;;10360025;28;20116;-68
2021/08/30 16:15:26;;;;;;;7.65;3.67;;;19.50;99.90;;;;;;10361476;28;20133;-69
2021/08/30 16:20:28;;;;;;;;;;;19.40;99.90;;;;;;10362741;28;20049;-68
2021/08/30 16:25:31;;;;;;;4.50;3.60;;;19.40;99.90;;;;;;10362483;28;19931;-68
2021/08/30 16:30:33;;;;;;;4.82;3.78;;;19.40;99.90;;;;;;10367005;28;20054;-70
2021/08/30 16:35:35;;;;;;;7.20;3.42;;;19.30;99.90;;;;;;10362636;28;20042;-68
2021/08/30 16:40:37;;;;;;;5.85;3.90;;;19.40;99.90;;;;;;10365495;28;20128;-69
2021/08/30 16:45:40;;;;;;;5.95;3.45;;;19.40;99.90;;;;;;10365060;28;20061;-69
2021/08/30 16:50:43;;;;;;;4.85;2.53;;;19.40;99.90;;;;;;10364953;28;20084;-69
2021/08/30 16:55:48;;;;;;;4.05;2.58;;;19.40;99.90;;;;;;10365027;28;20128;-66
2021/08/30 17:00:50;;;;;;;5.18;2.70;;;19.40;99.90;;;;;;10352054;28;20081;-69
2021/08/30 17:05:52;;;;;;;4.18;2.47;;;19.30;99.90;;;;;;10351751;28;20598;-69
2021/08/30 17:10:53;;;;;;;5.72;2.38;;;19.30;99.90;;;;;;10357045;28;20045;-68
2021/08/30 17:15:55;;;;;;;2.50;2.20;;;19.40;99.90;;;;;;10367833;28;20061;-68
2021/08/30 17:20:57;;;;;;;6.60;2.72;;;19.40;99.90;;;;;;10363098;28;20479;-69
2021/08/30 17:25:59;;;;;;;4.05;2.90;;;19.20;99.90;;;;;;10367369;28;20099;-67
2021/08/30 17:31:01;;;;;;;5.38;3.17;;;19.20;99.90;;;;;;10365798;28;20049;-68
2021/08/30 17:36:03;;;;;;;4.72;3.15;;;19.10;99.90;;;;;;10367680;28;20160;-70
2021/08/30 17:41:04;;;;;;;3.80;2.35;;;19.00;99.90;;;;;;10374547;28;20541;-69
2021/08/30 17:46:06;;;;;;;2.90;2.60;;;19.00;99.90;;;;;;10365979;28;20045;-68
2021/08/30 17:51:08;;;;;;;5.25;2.78;;;18.90;99.90;;;;;;10367291;28;20053;-68
2021/08/30 17:56:10;;;;;;;4.75;2.38;;;18.70;99.90;;;;;;10371103;28;20073;-69
2021/08/30 18:01:12;;;;;;;7.53;2.80;;;18.50;99.90;;;;;;10367720;28;20444;-67
2021/08/30 18:06:14;;;;;;;6.90;2.85;;;18.40;99.90;;;;;;10361970;28;20056;-68
2021/08/30 18:11:16;;;;;;;4.65;2.80;;;18.30;99.90;;;;;;10373497;28;20049;-69
2021/08/30 18:16:17;;;;;;;5.28;3.05;;;18.40;99.90;;;;;;10365297;28;20041;-68
2021/08/30 18:21:19;;;;;;;5.28;2.88;;;18.20;99.90;;;;;;10364651;28;20049;-69
2021/08/30 18:26:21;;;;;;;4.25;2.83;;;18.10;99.90;;;;;;10366990;28;20052;-68
2021/08/30 18:31:22;;;;;;;6.90;3.63;;;18.00;99.90;;;;;;10365733;28;20124;-69
2021/08/30 18:36:27;;;;;;;6.47;3.50;;;17.90;99.90;;;;;;10363775;28;20045;-61
2021/08/30 18:41:29;;;;;;;4.97;3.33;;;17.90;99.90;;;;;;10359018;28;20056;-61
2021/08/30 18:46:31;;;;;;;4.32;2.90;;;17.80;99.90;;;;;;10364245;28;20489;-59
2021/08/30 18:51:40;;;;;;;7.80;3.45;;;17.80;99.90;;;;;;10363741;28;20052;-61
2021/08/30 18:56:42;;;;;;;5.93;3.40;;;17.70;99.90;;;;;;10372075;28;20049;-62
2021/08/30 19:01:44;;;;;;;5.55;3.65;;;17.70;99.90;;;;;;10368376;28;20135;-61
2021/08/30 19:06:47;;;;;;;5.40;3.40;;;17.70;99.90;;;;;;10376634;28;20049;-62
2021/08/30 19:11:49;;;;;;;3.97;3.35;;;17.60;99.90;;;;;;10363518;28;20123;-62
2021/08/30 19:16:51;;;;;;;4.60;3.10;;;17.60;99.90;;;;;;10362723;28;20054;-62
2021/08/30 19:21:53;;;;;;;6.00;3.33;;;17.60;99.90;;;;;;10367974;28;20058;-62
2021/08/30 19:26:55;;;;;;;6.90;4.60;;;17.50;99.90;;;;;;10363002;28;20057;-62
2021/08/30 19:31:56;;;;;;;4.40;3.03;;;17.40;99.90;;;;;;10366167;28;20061;-60
2021/08/30 19:36:58;;;;;;;5.47;3.30;;;17.40;99.90;;;;;;10362731;28;20107;-60
2021/08/30 19:42:00;;;;;;;5.18;3.05;;;17.30;99.90;;;;;;10363725;28;20127;-60
2021/08/30 19:47:02;;;;;;;5.05;3.22;;;17.30;99.90;;;;;;10361758;28;20061;-60
2021/08/30 19:52:04;;;;;;;10.57;3.67;;;17.30;99.90;;;;;;10365273;28;20073;-60
2021/08/30 19:57:05;;;;;;;5.32;3.17;;;17.30;99.90;;;;;;10365602;28;20045;-60
2021/08/30 20:02:07;;;;;;;4.32;3.33;;;17.30;99.90;;;;;;10361323;28;20073;-61
2021/08/30 20:07:09;;;;;;;4.72;2.63;;;17.30;99.90;;;;;;10363379;28;20053;-60
2021/08/30 20:12:11;;;;;;;5.95;2.50;;;17.40;99.90;;;;;;10364415;28;20081;-61
2021/08/30 20:17:12;;;;;;;4.43;2.85;;;17.50;99.90;;;;;;10360650;28;20138;-60
2021/08/30 20:22:14;;;;;;;5.28;2.80;;;17.50;99.90;;;;;;10365962;28;20080;-61
2021/08/30 20:27:17;;;;;;;8.93;5.95;;;17.50;99.90;;;;;;10365727;28;20041;-61
2021/08/30 20:32:19;;;;;;;5.15;2.70;;;17.50;99.90;;;;;;10366289;28;20058;-61
2021/08/30 20:37:20;;;;;;;5.57;3.25;;;17.50;99.90;;;;;;10369273;28;20088;-60
2021/08/30 20:42:22;;;;;;;4.95;2.80;;;17.40;99.90;;;;;;10374534;28;20056;-61
2021/08/30 20:47:24;;;;;;;4.70;3.35;;;17.40;99.90;;;;;;10366960;28;20108;-61
2021/08/30 20:52:25;;;;;;;4.63;2.78;;;17.40;99.90;;;;;;10368059;28;20057;-60
2021/08/30 20:57:27;;;;;;;4.22;2.53;;;17.30;99.90;;;;;;10368423;28;20057;-60
2021/08/30 21:02:29;;;;;;;6.63;3.03;;;17.20;99.90;;;;;;10368643;28;20119;-60
2021/08/30 21:07:31;;;;;;;5.15;2.40;;;17.10;99.90;;;;;;10368403;28;20081;-60
2021/08/30 21:12:32;;;;;;;4.75;2.65;;;17.10;99.90;;;;;;10365094;28;20064;-61
2021/08/30 21:17:34;;;;;;;3.83;2.25;;;17.00;99.90;;;;;;10369172;28;20057;-60
2021/08/30 21:22:36;;;;;;;2.83;1.95;;;17.00;99.90;;;;;;10372445;28;20115;-60
2021/08/30 21:27:38;;;;;;;3.83;2.45;;;16.90;99.90;;;;;;10370159;28;20050;-61
2021/08/30 21:32:40;;;;;;;5.00;2.47;;;16.90;99.90;;;;;;10363959;28;20104;-60
2021/08/30 21:37:41;;;;;;;3.38;2.70;;;16.80;99.90;;;;;;10371554;28;20073;-61
2021/08/30 21:42:43;;;;;;;6.15;2.22;;;16.70;99.90;;;;;;10367853;28;20418;-61
2021/08/30 21:47:45;;;;;;;5.35;2.75;;;16.60;99.90;;;;;;10365224;28;20099;-60
2021/08/30 21:52:47;;;;;;;5.88;2.63;;;16.50;99.90;;;;;;10371361;28;20045;-61
2021/08/30 21:57:49;;;;;;;3.53;2.38;;;16.40;99.90;;;;;;10370810;28;20077;-61
2021/08/30 22:02:51;;;;;;;5.13;2.63;;;16.40;99.90;;;;;;10364630;28;20085;-61
2021/08/30 22:07:53;;;;;;;5.05;3.13;;;16.30;99.90;;;;;;10365228;28;20045;-61
2021/08/30 22:12:54;;;;;;;7.45;2.42;;;16.30;99.90;;;;;;10365413;28;20103;-60
2021/08/30 22:17:56;;;;;;;3.95;2.25;;;16.20;99.90;;;;;;10365690;28;20045;-61
2021/08/30 22:22:58;;;;;;;7.63;2.63;;;16.10;99.90;;;;;;10368245;28;20045;-61
2021/08/30 22:27:59;;;;;;;6.13;3.05;;;16.00;99.90;;;;;;10372431;28;20087;-61
2021/08/30 22:33:01;;;;;;;4.00;2.38;;;15.90;99.90;;;;;;10367256;28;20067;-62
2021/08/30 22:38:03;;;;;;;4.88;2.75;;;15.90;99.90;;;;;;10359691;28;20053;-61
2021/08/30 22:43:05;;;;;;;4.28;2.65;;;15.80;99.90;;;;;;10367863;28;20123;-60
2021/08/30 22:48:07;;;;;;;4.97;2.55;;;15.70;99.90;;;;;;10357966;28;20080;-61
2021/08/30 22:53:08;;;;;;;4.72;2.53;;;15.70;99.90;;;;;;10363735;28;20107;-60
2021/08/30 22:58:10;;;;;;;4.65;2.38;;;15.60;99.90;;;;;;10364270;28;20501;-61
2021/08/30 23:03:12;;;;;;;3.28;2.63;;;15.50;99.90;;;;;;10362699;28;20045;-61
2021/08/30 23:08:14;;;;;;;4.03;2.47;;;15.40;99.90;;;;;;10369514;28;20061;-60
2021/08/30 23:13:15;;;;;;;7.03;3.22;;;15.30;99.90;;;;;;10365014;28;20060;-60
2021/08/30 23:18:17;;;;;;;6.28;2.78;;;15.30;99.90;;;;;;10366489;28;20448;-61
2021/08/30 23:23:19;;;;;;;3.35;2.55;;;15.20;99.90;;;;;;10382164;28;20107;-61
2021/08/30 23:28:20;;;;;;;6.30;2.75;;;15.10;99.90;;;;;;10363699;28;20049;-61
2021/08/30 23:33:22;;;;;;;5.43;3.13;;;15.10;99.90;;;;;;10361365;28;21060;-61
2021/08/30 23:38:24;;;;;;;4.07;2.53;;;15.00;99.90;;;;;;10363796;28;20053;-61
2021/08/30 23:43:25;;;;;;;8.20;3.80;;;15.00;99.90;;;;;;10366277;28;20077;-61
2021/08/30 23:48:27;;;;;;;5.75;3.10;;;15.00;99.90;;;;;;10359109;28;20058;-61
2021/08/30 23:53:29;;;;;;;4.70;3.35;;;14.90;99.90;;;;;;10368719;28;20150;-61
2021/08/30 23:58:30;;;;;;;5.32;3.35;;;14.90;99.90;;;;;;10359983;28;20058;-61
